createdAt,value
2018-09-11T00:05:52.292Z,16.09
2018-09-11T00:26:34.633Z,15.68
2018-09-11T00:47:13.901Z,15.56
2018-09-11T01:07:55.017Z,15.24
2018-09-11T01:28:35.507Z,14.96
2018-09-11T01:49:18.762Z,14.65
2018-09-11T02:10:03.870Z,14.52
2018-09-11T02:30:44.612Z,14.29
2018-09-11T02:51:24.562Z,13.98
2018-09-11T03:12:05.964Z,13.78
2018-09-11T03:32:45.232Z,13.78
2018-09-11T03:53:24.497Z,13.61
2018-09-11T04:14:04.689Z,13.44
2018-09-11T04:34:43.031Z,13.29
2018-09-11T04:55:27.515Z,13.06
2018-09-11T05:16:11.699Z,12.89
2018-09-11T05:36:52.810Z,12.79
2018-09-11T05:57:36.373Z,12.83
2018-09-11T06:18:21.170Z,12.94
2018-09-11T06:38:58.899Z,13.37
2018-09-11T06:59:40.010Z,13.85
2018-09-11T07:20:22.969Z,14.40
2018-09-11T07:40:58.544Z,14.98
2018-09-11T08:01:43.236Z,15.71
2018-09-11T08:22:26.291Z,16.61
2018-09-11T08:43:04.909Z,17.59
2018-09-11T09:03:44.824Z,18.39
2018-09-11T09:24:25.011Z,18.97
2018-09-11T09:45:03.353Z,19.66
2018-09-11T10:05:42.620Z,19.95
2018-09-11T10:26:21.884Z,20.30
2018-09-11T11:05:07.736Z,21.26
2018-09-11T11:25:49.481Z,21.73
2018-09-11T11:46:35.824Z,21.95
2018-09-11T12:07:12.258Z,22.35
2018-09-11T12:27:54.028Z,22.61
2018-09-11T12:48:36.472Z,22.90
2018-09-11T13:09:15.685Z,23.27
2018-09-11T13:29:59.245Z,23.70
2018-09-11T13:50:40.609Z,25.05
2018-09-11T14:11:19.561Z,25.93
2018-09-11T14:32:00.980Z,26.04
2018-09-11T14:52:45.227Z,26.25
2018-09-11T15:13:24.427Z,26.65
2018-09-11T15:34:12.250Z,26.85
2018-09-11T15:54:54.944Z,27.00
2018-09-11T16:15:37.745Z,26.71
2018-09-11T16:36:22.691Z,26.02
2018-09-11T16:57:08.105Z,25.32
2018-09-11T17:17:48.293Z,24.40
2018-09-11T17:38:27.557Z,23.52
2018-09-11T17:59:07.747Z,22.77
2018-09-11T18:19:48.238Z,21.86
2018-09-11T18:40:31.496Z,21.06
2018-09-11T19:01:08.618Z,20.47
2018-09-11T19:21:49.110Z,19.93
2018-09-11T19:42:27.197Z,19.36
2018-09-11T20:03:08.565Z,18.76
2018-09-11T20:23:46.601Z,18.37
2018-09-11T20:44:27.097Z,18.00
2018-09-11T21:05:09.434Z,17.54
2018-09-11T21:25:59.757Z,17.24
2018-09-11T21:46:39.027Z,16.84
2018-09-11T22:07:22.602Z,16.51
2018-09-11T22:28:11.689Z,16.17
2018-09-11T22:48:50.959Z,15.77
2018-09-11T23:09:33.296Z,15.25
2018-09-11T23:30:15.329Z,15.08
2018-09-11T23:50:54.902Z,14.86
